sensor_id;sensor_type;location;lat;lon;timestamp;temperature;humidity
6654;DHT22;3363;50.942;7.034;2023-04-03T00:01:42;7.30;61.90
6654;DHT22;3363;50.942;7.034;2023-04-03T00:04:10;7.30;61.70
6654;DHT22;3363;50.942;7.034;2023-04-03T00:06:36;7.30;61.80
6654;DHT22;3363;50.942;7.034;2023-04-03T00:09:03;7.30;61.90
6654;DHT22;3363;50.942;7.034;2023-04-03T00:11:30;7.30;62.00
6654;DHT22;3363;50.942;7.034;2023-04-03T00:13:57;7.30;61.90
6654;DHT22;3363;50.942;7.034;2023-04-03T00:16:24;7.30;62.60
6654;DHT22;3363;50.942;7.034;2023-04-03T00:18:52;7.20;62.10
6654;DHT22;3363;50.942;7.034;2023-04-03T00:21:19;7.20;62.10
6654;DHT22;3363;50.942;7.034;2023-04-03T00:23:46;7.20;62.10
6654;DHT22;3363;50.942;7.034;2023-04-03T00:26:13;7.20;62.30
6654;DHT22;3363;50.942;7.034;2023-04-03T00:28:40;7.20;62.20
6654;DHT22;3363;50.942;7.034;2023-04-03T00:31:07;7.20;62.20
6654;DHT22;3363;50.942;7.034;2023-04-03T00:33:34;7.20;62.30
6654;DHT22;3363;50.942;7.034;2023-04-03T00:36:07;7.20;62.20
6654;DHT22;3363;50.942;7.034;2023-04-03T00:38:34;7.10;62.20
6654;DHT22;3363;50.942;7.034;2023-04-03T00:41:02;7.10;62.30
6654;DHT22;3363;50.942;7.034;2023-04-03T00:43:29;7.10;62.40
6654;DHT22;3363;50.942;7.034;2023-04-03T00:45:57;7.10;62.30
6654;DHT22;3363;50.942;7.034;2023-04-03T00:48:27;7.00;62.10
6654;DHT22;3363;50.942;7.034;2023-04-03T00:50:54;7.00;62.50
6654;DHT22;3363;50.942;7.034;2023-04-03T00:53:25;7.00;62.30
6654;DHT22;3363;50.942;7.034;2023-04-03T00:55:57;7.00;62.30
6654;DHT22;3363;50.942;7.034;2023-04-03T00:58:28;7.00;62.40
6654;DHT22;3363;50.942;7.034;2023-04-03T01:00:58;7.00;62.20
6654;DHT22;3363;50.942;7.034;2023-04-03T01:03:26;7.00;62.30
6654;DHT22;3363;50.942;7.034;2023-04-03T01:05:53;7.00;62.30
6654;DHT22;3363;50.942;7.034;2023-04-03T01:08:20;7.00;62.10
6654;DHT22;3363;50.942;7.034;2023-04-03T01:10:48;7.00;62.00
6654;DHT22;3363;50.942;7.034;2023-04-03T01:13:22;7.00;61.90
6654;DHT22;3363;50.942;7.034;2023-04-03T01:15:49;6.90;61.70
6654;DHT22;3363;50.942;7.034;2023-04-03T01:18:16;6.90;62.20
6654;DHT22;3363;50.942;7.034;2023-04-03T01:21:10;6.90;61.70
6654;DHT22;3363;50.942;7.034;2023-04-03T01:23:53;6.90;61.70
6654;DHT22;3363;50.942;7.034;2023-04-03T01:26:23;6.90;61.60
6654;DHT22;3363;50.942;7.034;2023-04-03T01:28:53;6.80;61.40
6654;DHT22;3363;50.942;7.034;2023-04-03T01:31:24;6.80;61.20
6654;DHT22;3363;50.942;7.034;2023-04-03T01:33:54;6.80;61.40
6654;DHT22;3363;50.942;7.034;2023-04-03T01:36:23;6.80;61.40
6654;DHT22;3363;50.942;7.034;2023-04-03T01:38:51;6.80;61.20
6654;DHT22;3363;50.942;7.034;2023-04-03T01:41:18;6.70;61.20
6654;DHT22;3363;50.942;7.034;2023-04-03T01:43:46;6.70;61.20
6654;DHT22;3363;50.942;7.034;2023-04-03T01:46:13;6.70;61.20
6654;DHT22;3363;50.942;7.034;2023-04-03T01:48:40;6.70;61.40
6654;DHT22;3363;50.942;7.034;2023-04-03T01:51:09;6.70;61.40
6654;DHT22;3363;50.942;7.034;2023-04-03T01:53:36;6.70;61.50
6654;DHT22;3363;50.942;7.034;2023-04-03T01:56:03;6.70;61.50
6654;DHT22;3363;50.942;7.034;2023-04-03T01:58:31;6.60;61.50
6654;DHT22;3363;50.942;7.034;2023-04-03T02:00:58;6.60;61.50
6654;DHT22;3363;50.942;7.034;2023-04-03T02:03:24;6.60;61.50
6654;DHT22;3363;50.942;7.034;2023-04-03T02:05:51;6.60;61.40
6654;DHT22;3363;50.942;7.034;2023-04-03T02:08:20;6.60;61.40
6654;DHT22;3363;50.942;7.034;2023-04-03T02:10:47;6.60;61.40
6654;DHT22;3363;50.942;7.034;2023-04-03T02:13:14;6.60;61.30
6654;DHT22;3363;50.942;7.034;2023-04-03T02:15:41;6.50;61.40
6654;DHT22;3363;50.942;7.034;2023-04-03T02:18:08;6.50;61.30
6654;DHT22;3363;50.942;7.034;2023-04-03T02:20:35;6.50;61.30
6654;DHT22;3363;50.942;7.034;2023-04-03T02:23:02;6.50;61.50
6654;DHT22;3363;50.942;7.034;2023-04-03T02:25:32;6.50;61.20
6654;DHT22;3363;50.942;7.034;2023-04-03T02:27:59;6.50;61.30
6654;DHT22;3363;50.942;7.034;2023-04-03T02:30:26;6.50;61.10
6654;DHT22;3363;50.942;7.034;2023-04-03T02:32:53;6.40;61.10
6654;DHT22;3363;50.942;7.034;2023-04-03T02:35:21;6.40;61.00
6654;DHT22;3363;50.942;7.034;2023-04-03T02:37:48;6.50;61.00
6654;DHT22;3363;50.942;7.034;2023-04-03T02:40:15;6.40;60.90
6654;DHT22;3363;50.942;7.034;2023-04-03T02:42:43;6.40;61.00
6654;DHT22;3363;50.942;7.034;2023-04-03T02:45:10;6.40;60.90
6654;DHT22;3363;50.942;7.034;2023-04-03T02:47:37;6.40;61.00
6654;DHT22;3363;50.942;7.034;2023-04-03T02:50:05;6.30;60.90
6654;DHT22;3363;50.942;7.034;2023-04-03T02:52:33;6.30;60.90
6654;DHT22;3363;50.942;7.034;2023-04-03T02:54:59;6.30;60.90
6654;DHT22;3363;50.942;7.034;2023-04-03T02:57:26;6.30;60.90
6654;DHT22;3363;50.942;7.034;2023-04-03T02:59:55;6.30;60.90
6654;DHT22;3363;50.942;7.034;2023-04-03T03:02:21;6.30;60.90
6654;DHT22;3363;50.942;7.034;2023-04-03T03:04:48;6.20;60.80
6654;DHT22;3363;50.942;7.034;2023-04-03T03:07:15;6.20;60.80
6654;DHT22;3363;50.942;7.034;2023-04-03T03:09:42;6.20;60.80
6654;DHT22;3363;50.942;7.034;2023-04-03T03:12:09;6.20;60.80
6654;DHT22;3363;50.942;7.034;2023-04-03T03:14:36;6.20;60.80
6654;DHT22;3363;50.942;7.034;2023-04-03T03:17:04;6.20;60.80
6654;DHT22;3363;50.942;7.034;2023-04-03T03:19:31;6.20;60.80
6654;DHT22;3363;50.942;7.034;2023-04-03T03:21:58;6.20;60.80
6654;DHT22;3363;50.942;7.034;2023-04-03T03:24:25;6.10;60.70
6654;DHT22;3363;50.942;7.034;2023-04-03T03:26:51;6.10;60.70
6654;DHT22;3363;50.942;7.034;2023-04-03T03:29:18;6.10;60.70
6654;DHT22;3363;50.942;7.034;2023-04-03T03:31:45;6.10;60.70
6654;DHT22;3363;50.942;7.034;2023-04-03T03:34:14;6.10;60.70
6654;DHT22;3363;50.942;7.034;2023-04-03T03:36:41;6.00;60.90
6654;DHT22;3363;50.942;7.034;2023-04-03T03:39:07;6.00;61.00
6654;DHT22;3363;50.942;7.034;2023-04-03T03:41:34;6.00;61.00
6654;DHT22;3363;50.942;7.034;2023-04-03T03:44:01;6.00;60.60
6654;DHT22;3363;50.942;7.034;2023-04-03T03:46:28;6.00;60.70
6654;DHT22;3363;50.942;7.034;2023-04-03T03:48:55;5.80;60.60
6654;DHT22;3363;50.942;7.034;2023-04-03T03:51:24;5.80;61.00
6654;DHT22;3363;50.942;7.034;2023-04-03T03:53:50;5.60;60.80
6654;DHT22;3363;50.942;7.034;2023-04-03T03:56:17;5.80;61.40
6654;DHT22;3363;50.942;7.034;2023-04-03T03:58:44;5.70;60.70
6654;DHT22;3363;50.942;7.034;2023-04-03T04:01:11;5.80;61.30
6654;DHT22;3363;50.942;7.034;2023-04-03T04:03:39;5.80;60.50
6654;DHT22;3363;50.942;7.034;2023-04-03T04:06:07;5.70;61.00
6654;DHT22;3363;50.942;7.034;2023-04-03T04:08:35;5.60;60.30
6654;DHT22;3363;50.942;7.034;2023-04-03T04:11:02;5.60;61.40
6654;DHT22;3363;50.942;7.034;2023-04-03T04:13:29;5.60;61.30
6654;DHT22;3363;50.942;7.034;2023-04-03T04:15:56;5.60;61.50
6654;DHT22;3363;50.942;7.034;2023-04-03T04:18:23;5.70;61.30
6654;DHT22;3363;50.942;7.034;2023-04-03T04:20:50;5.80;61.10
6654;DHT22;3363;50.942;7.034;2023-04-03T04:23:17;5.70;60.70
6654;DHT22;3363;50.942;7.034;2023-04-03T04:25:47;5.50;60.10
6654;DHT22;3363;50.942;7.034;2023-04-03T04:28:14;5.50;61.60
6654;DHT22;3363;50.942;7.034;2023-04-03T04:30:41;5.60;61.20
6654;DHT22;3363;50.942;7.034;2023-04-03T04:33:08;5.50;61.10
6654;DHT22;3363;50.942;7.034;2023-04-03T04:35:35;5.40;60.20
6654;DHT22;3363;50.942;7.034;2023-04-03T04:38:02;5.40;60.80
6654;DHT22;3363;50.942;7.034;2023-04-03T04:40:30;5.40;59.30
6654;DHT22;3363;50.942;7.034;2023-04-03T04:42:58;5.40;61.50
6654;DHT22;3363;50.942;7.034;2023-04-03T04:45:25;5.40;60.80
6654;DHT22;3363;50.942;7.034;2023-04-03T04:47:54;5.50;61.00
6654;DHT22;3363;50.942;7.034;2023-04-03T04:50:21;5.50;61.30
6654;DHT22;3363;50.942;7.034;2023-04-03T04:52:48;5.50;61.00
6654;DHT22;3363;50.942;7.034;2023-04-03T04:55:15;5.60;61.00
6654;DHT22;3363;50.942;7.034;2023-04-03T04:57:42;5.60;60.90
6654;DHT22;3363;50.942;7.034;2023-04-03T05:00:11;5.60;60.80
6654;DHT22;3363;50.942;7.034;2023-04-03T05:02:42;5.60;60.80
6654;DHT22;3363;50.942;7.034;2023-04-03T05:05:09;5.70;60.80
6654;DHT22;3363;50.942;7.034;2023-04-03T05:07:36;5.60;60.60
6654;DHT22;3363;50.942;7.034;2023-04-03T05:10:04;5.60;60.70
6654;DHT22;3363;50.942;7.034;2023-04-03T05:12:31;5.60;60.60
6654;DHT22;3363;50.942;7.034;2023-04-03T05:14:58;5.60;60.50
6654;DHT22;3363;50.942;7.034;2023-04-03T05:17:27;5.60;60.50
6654;DHT22;3363;50.942;7.034;2023-04-03T05:19:53;5.60;60.40
6654;DHT22;3363;50.942;7.034;2023-04-03T05:22:26;5.70;60.40
6654;DHT22;3363;50.942;7.034;2023-04-03T05:24:53;5.70;60.40
6654;DHT22;3363;50.942;7.034;2023-04-03T05:27:20;5.60;60.40
6654;DHT22;3363;50.942;7.034;2023-04-03T05:29:49;5.60;60.40
6654;DHT22;3363;50.942;7.034;2023-04-03T05:32:16;5.60;60.60
6654;DHT22;3363;50.942;7.034;2023-04-03T05:34:44;5.60;60.40
6654;DHT22;3363;50.942;7.034;2023-04-03T05:37:11;5.60;60.60
6654;DHT22;3363;50.942;7.034;2023-04-03T05:39:38;5.60;60.70
6654;DHT22;3363;50.942;7.034;2023-04-03T05:42:06;5.60;60.50
6654;DHT22;3363;50.942;7.034;2023-04-03T05:44:33;5.60;60.50
6654;DHT22;3363;50.942;7.034;2023-04-03T05:47:00;5.60;60.60
6654;DHT22;3363;50.942;7.034;2023-04-03T05:49:27;5.60;60.60
6654;DHT22;3363;50.942;7.034;2023-04-03T05:51:56;5.50;60.70
6654;DHT22;3363;50.942;7.034;2023-04-03T05:54:24;5.50;60.60
6654;DHT22;3363;50.942;7.034;2023-04-03T05:56:52;5.50;60.30
6654;DHT22;3363;50.942;7.034;2023-04-03T05:59:21;5.50;60.90
6654;DHT22;3363;50.942;7.034;2023-04-03T06:01:48;5.50;60.80
6654;DHT22;3363;50.942;7.034;2023-04-03T06:04:15;5.50;60.50
6654;DHT22;3363;50.942;7.034;2023-04-03T06:06:46;5.50;60.70
6654;DHT22;3363;50.942;7.034;2023-04-03T06:09:15;5.50;60.90
6654;DHT22;3363;50.942;7.034;2023-04-03T06:11:44;5.50;60.80
6654;DHT22;3363;50.942;7.034;2023-04-03T06:14:11;5.40;60.40
6654;DHT22;3363;50.942;7.034;2023-04-03T06:16:38;5.50;61.10
6654;DHT22;3363;50.942;7.034;2023-04-03T06:19:06;5.40;60.20
6654;DHT22;3363;50.942;7.034;2023-04-03T06:21:33;5.20;56.80
6654;DHT22;3363;50.942;7.034;2023-04-03T06:24:01;5.20;61.60
6654;DHT22;3363;50.942;7.034;2023-04-03T06:26:29;5.20;60.80
6654;DHT22;3363;50.942;7.034;2023-04-03T06:28:56;5.30;61.20
6654;DHT22;3363;50.942;7.034;2023-04-03T06:31:23;5.40;61.10
6654;DHT22;3363;50.942;7.034;2023-04-03T06:33:50;5.20;59.80
6654;DHT22;3363;50.942;7.034;2023-04-03T06:36:19;5.20;61.00
6654;DHT22;3363;50.942;7.034;2023-04-03T06:38:47;5.20;59.70
6654;DHT22;3363;50.942;7.034;2023-04-03T06:41:14;5.20;61.00
6654;DHT22;3363;50.942;7.034;2023-04-03T06:43:43;5.30;61.20
6654;DHT22;3363;50.942;7.034;2023-04-03T06:46:14;5.40;61.70
6654;DHT22;3363;50.942;7.034;2023-04-03T06:48:42;5.30;60.40
6654;DHT22;3363;50.942;7.034;2023-04-03T06:51:15;5.30;61.30
6654;DHT22;3363;50.942;7.034;2023-04-03T06:53:43;5.30;60.10
6654;DHT22;3363;50.942;7.034;2023-04-03T06:56:11;5.30;60.70
6654;DHT22;3363;50.942;7.034;2023-04-03T06:58:38;5.30;60.10
6654;DHT22;3363;50.942;7.034;2023-04-03T07:01:08;5.20;60.50
6654;DHT22;3363;50.942;7.034;2023-04-03T07:03:35;5.10;60.00
6654;DHT22;3363;50.942;7.034;2023-04-03T07:06:02;5.10;60.90
6654;DHT22;3363;50.942;7.034;2023-04-03T07:08:30;5.20;61.20
6654;DHT22;3363;50.942;7.034;2023-04-03T07:10:57;5.30;61.10
6654;DHT22;3363;50.942;7.034;2023-04-03T07:13:24;5.30;60.80
6654;DHT22;3363;50.942;7.034;2023-04-03T07:15:52;5.10;56.40
6654;DHT22;3363;50.942;7.034;2023-04-03T07:18:20;5.10;60.00
6654;DHT22;3363;50.942;7.034;2023-04-03T07:20:47;5.10;59.10
6654;DHT22;3363;50.942;7.034;2023-04-03T07:23:15;5.10;60.00
6654;DHT22;3363;50.942;7.034;2023-04-03T07:25:43;5.10;60.00
6654;DHT22;3363;50.942;7.034;2023-04-03T07:28:11;5.10;60.00
6654;DHT22;3363;50.942;7.034;2023-04-03T07:30:43;5.20;59.40
6654;DHT22;3363;50.942;7.034;2023-04-03T07:33:11;5.10;57.70
6654;DHT22;3363;50.942;7.034;2023-04-03T07:35:40;5.20;58.30
6654;DHT22;3363;50.942;7.034;2023-04-03T07:38:08;5.20;57.60
6654;DHT22;3363;50.942;7.034;2023-04-03T07:40:36;5.10;54.60
6654;DHT22;3363;50.942;7.034;2023-04-03T07:43:03;5.10;56.90
6654;DHT22;3363;50.942;7.034;2023-04-03T07:45:30;5.20;56.20
6654;DHT22;3363;50.942;7.034;2023-04-03T07:47:57;5.20;56.70
6654;DHT22;3363;50.942;7.034;2023-04-03T07:50:24;5.20;57.20
6654;DHT22;3363;50.942;7.034;2023-04-03T07:52:53;5.20;56.10
6654;DHT22;3363;50.942;7.034;2023-04-03T07:55:21;5.30;57.30
6654;DHT22;3363;50.942;7.034;2023-04-03T07:57:48;5.30;55.50
6654;DHT22;3363;50.942;7.034;2023-04-03T08:00:16;5.30;55.70
6654;DHT22;3363;50.942;7.034;2023-04-03T08:02:45;5.40;57.50
6654;DHT22;3363;50.942;7.034;2023-04-03T08:05:16;5.30;53.60
6654;DHT22;3363;50.942;7.034;2023-04-03T08:07:43;5.40;57.60
6654;DHT22;3363;50.942;7.034;2023-04-03T08:10:11;5.40;56.10
6654;DHT22;3363;50.942;7.034;2023-04-03T08:12:38;5.50;56.10
6654;DHT22;3363;50.942;7.034;2023-04-03T08:15:06;5.50;54.40
6654;DHT22;3363;50.942;7.034;2023-04-03T08:17:33;5.60;56.20
6654;DHT22;3363;50.942;7.034;2023-04-03T08:20:00;5.60;50.20
6654;DHT22;3363;50.942;7.034;2023-04-03T08:22:27;5.60;51.90
6654;DHT22;3363;50.942;7.034;2023-04-03T08:24:54;5.60;54.70
6654;DHT22;3363;50.942;7.034;2023-04-03T08:27:23;5.70;53.60
6654;DHT22;3363;50.942;7.034;2023-04-03T08:29:50;5.70;52.10
6654;DHT22;3363;50.942;7.034;2023-04-03T08:32:17;5.70;53.10
6654;DHT22;3363;50.942;7.034;2023-04-03T08:34:44;5.70;52.20
6654;DHT22;3363;50.942;7.034;2023-04-03T08:37:11;5.80;52.00
6654;DHT22;3363;50.942;7.034;2023-04-03T08:39:38;5.90;53.00
6654;DHT22;3363;50.942;7.034;2023-04-03T08:42:14;5.90;51.90
6654;DHT22;3363;50.942;7.034;2023-04-03T08:44:47;5.90;51.60
6654;DHT22;3363;50.942;7.034;2023-04-03T08:47:21;5.90;53.40
6654;DHT22;3363;50.942;7.034;2023-04-03T08:49:52;5.90;49.90
6654;DHT22;3363;50.942;7.034;2023-04-03T08:52:35;5.90;51.90
6654;DHT22;3363;50.942;7.034;2023-04-03T08:55:04;6.00;52.50
6654;DHT22;3363;50.942;7.034;2023-04-03T08:57:34;6.10;50.10
6654;DHT22;3363;50.942;7.034;2023-04-03T09:00:07;6.20;49.60
6654;DHT22;3363;50.942;7.034;2023-04-03T09:02:44;6.30;50.30
6654;DHT22;3363;50.942;7.034;2023-04-03T09:05:13;6.30;48.80
6654;DHT22;3363;50.942;7.034;2023-04-03T09:07:43;6.40;47.30
6654;DHT22;3363;50.942;7.034;2023-04-03T09:10:13;6.40;50.40
6654;DHT22;3363;50.942;7.034;2023-04-03T09:12:42;6.40;51.00
6654;DHT22;3363;50.942;7.034;2023-04-03T09:15:25;6.40;48.00
6654;DHT22;3363;50.942;7.034;2023-04-03T09:18:03;6.40;49.90
6654;DHT22;3363;50.942;7.034;2023-04-03T09:20:39;6.50;50.10
6654;DHT22;3363;50.942;7.034;2023-04-03T09:23:19;6.70;45.80
6654;DHT22;3363;50.942;7.034;2023-04-03T09:25:49;6.80;47.30
6654;DHT22;3363;50.942;7.034;2023-04-03T09:28:17;6.90;44.30
6654;DHT22;3363;50.942;7.034;2023-04-03T09:30:45;6.90;44.10
6654;DHT22;3363;50.942;7.034;2023-04-03T09:33:12;6.90;44.40
6654;DHT22;3363;50.942;7.034;2023-04-03T09:35:41;7.10;39.10
6654;DHT22;3363;50.942;7.034;2023-04-03T09:38:20;7.10;43.50
6654;DHT22;3363;50.942;7.034;2023-04-03T09:40:49;7.20;43.70
6654;DHT22;3363;50.942;7.034;2023-04-03T09:43:28;7.30;40.00
6654;DHT22;3363;50.942;7.034;2023-04-03T09:48:50;7.60;40.70
6654;DHT22;3363;50.942;7.034;2023-04-03T09:51:17;7.70;43.20
6654;DHT22;3363;50.942;7.034;2023-04-03T09:53:45;8.00;40.70
6654;DHT22;3363;50.942;7.034;2023-04-03T09:56:21;8.00;36.60
6654;DHT22;3363;50.942;7.034;2023-04-03T09:58:49;7.80;39.40
6654;DHT22;3363;50.942;7.034;2023-04-03T10:01:27;7.80;43.30
6654;DHT22;3363;50.942;7.034;2023-04-03T10:04:06;7.80;39.60
6654;DHT22;3363;50.942;7.034;2023-04-03T10:06:35;7.80;38.00
6654;DHT22;3363;50.942;7.034;2023-04-03T10:09:04;7.80;30.60
6654;DHT22;3363;50.942;7.034;2023-04-03T10:11:32;7.80;34.20
6654;DHT22;3363;50.942;7.034;2023-04-03T10:14:00;7.80;32.50
6654;DHT22;3363;50.942;7.034;2023-04-03T10:16:44;7.90;33.80
6654;DHT22;3363;50.942;7.034;2023-04-03T10:19:36;8.00;36.10
6654;DHT22;3363;50.942;7.034;2023-04-03T10:22:15;7.90;33.50
6654;DHT22;3363;50.942;7.034;2023-04-03T10:24:50;7.90;35.70
6654;DHT22;3363;50.942;7.034;2023-04-03T10:27:23;8.10;38.90
6654;DHT22;3363;50.942;7.034;2023-04-03T10:29:57;8.40;35.30
6654;DHT22;3363;50.942;7.034;2023-04-03T10:32:48;8.20;31.40
6654;DHT22;3363;50.942;7.034;2023-04-03T10:35:25;8.30;36.30
6654;DHT22;3363;50.942;7.034;2023-04-03T10:38:03;8.40;33.30
6654;DHT22;3363;50.942;7.034;2023-04-03T10:40:34;8.60;35.50
6654;DHT22;3363;50.942;7.034;2023-04-03T10:43:08;8.60;34.90
6654;DHT22;3363;50.942;7.034;2023-04-03T10:45:49;9.00;36.50
6654;DHT22;3363;50.942;7.034;2023-04-03T10:48:30;9.10;35.00
6654;DHT22;3363;50.942;7.034;2023-04-03T10:51:07;8.90;30.30
6654;DHT22;3363;50.942;7.034;2023-04-03T10:53:44;8.80;29.40
6654;DHT22;3363;50.942;7.034;2023-04-03T10:56:21;8.80;33.60
6654;DHT22;3363;50.942;7.034;2023-04-03T10:58:52;9.00;28.30
6654;DHT22;3363;50.942;7.034;2023-04-03T11:01:30;9.00;33.80
6654;DHT22;3363;50.942;7.034;2023-04-03T11:04:02;8.90;35.30
6654;DHT22;3363;50.942;7.034;2023-04-03T11:06:34;9.00;35.60
6654;DHT22;3363;50.942;7.034;2023-04-03T11:09:05;9.10;29.40
6654;DHT22;3363;50.942;7.034;2023-04-03T11:11:36;9.10;36.00
6654;DHT22;3363;50.942;7.034;2023-04-03T11:14:09;8.90;32.00
6654;DHT22;3363;50.942;7.034;2023-04-03T11:16:42;8.80;32.50
6654;DHT22;3363;50.942;7.034;2023-04-03T11:19:17;8.70;27.90
6654;DHT22;3363;50.942;7.034;2023-04-03T11:21:52;8.80;32.90
6654;DHT22;3363;50.942;7.034;2023-04-03T11:24:23;8.90;28.90
6654;DHT22;3363;50.942;7.034;2023-04-03T11:26:54;9.00;31.80
6654;DHT22;3363;50.942;7.034;2023-04-03T11:29:24;9.00;31.80
6654;DHT22;3363;50.942;7.034;2023-04-03T11:32:23;9.10;33.30
6654;DHT22;3363;50.942;7.034;2023-04-03T11:34:56;9.40;32.60
6654;DHT22;3363;50.942;7.034;2023-04-03T11:37:30;9.80;32.40
6654;DHT22;3363;50.942;7.034;2023-04-03T11:40:02;9.60;28.50
6654;DHT22;3363;50.942;7.034;2023-04-03T11:42:33;9.60;30.60
6654;DHT22;3363;50.942;7.034;2023-04-03T11:45:35;9.70;34.00
6654;DHT22;3363;50.942;7.034;2023-04-03T11:48:03;9.80;31.50
6654;DHT22;3363;50.942;7.034;2023-04-03T11:50:40;9.80;30.90
6654;DHT22;3363;50.942;7.034;2023-04-03T11:53:31;10.00;31.30
6654;DHT22;3363;50.942;7.034;2023-04-03T11:56:26;10.30;29.10
6654;DHT22;3363;50.942;7.034;2023-04-03T11:59:23;10.10;31.80
6654;DHT22;3363;50.942;7.034;2023-04-03T12:01:51;9.60;27.70
6654;DHT22;3363;50.942;7.034;2023-04-03T12:04:20;9.60;31.50
6654;DHT22;3363;50.942;7.034;2023-04-03T12:06:59;9.70;29.50
6654;DHT22;3363;50.942;7.034;2023-04-03T12:09:30;9.80;29.50
6654;DHT22;3363;50.942;7.034;2023-04-03T12:12:00;9.90;31.90
6654;DHT22;3363;50.942;7.034;2023-04-03T12:14:28;9.90;27.30
6654;DHT22;3363;50.942;7.034;2023-04-03T12:16:56;9.90;29.70
6654;DHT22;3363;50.942;7.034;2023-04-03T12:19:35;9.90;34.10
6654;DHT22;3363;50.942;7.034;2023-04-03T12:22:17;9.90;26.60
6654;DHT22;3363;50.942;7.034;2023-04-03T12:24:47;9.80;33.50
6654;DHT22;3363;50.942;7.034;2023-04-03T12:27:33;10.00;30.70
6654;DHT22;3363;50.942;7.034;2023-04-03T12:30:10;9.80;28.60
6654;DHT22;3363;50.942;7.034;2023-04-03T12:32:56;9.90;29.60
6654;DHT22;3363;50.942;7.034;2023-04-03T12:35:31;9.90;29.90
6654;DHT22;3363;50.942;7.034;2023-04-03T12:41:19;10.10;30.00
6654;DHT22;3363;50.942;7.034;2023-04-03T12:44:01;10.30;30.90
6654;DHT22;3363;50.942;7.034;2023-04-03T12:46:37;10.10;28.30
6654;DHT22;3363;50.942;7.034;2023-04-03T12:49:20;10.00;26.00
6654;DHT22;3363;50.942;7.034;2023-04-03T12:51:50;10.20;32.60
6654;DHT22;3363;50.942;7.034;2023-04-03T12:54:30;10.00;26.00
6654;DHT22;3363;50.942;7.034;2023-04-03T12:57:15;10.20;29.40
6654;DHT22;3363;50.942;7.034;2023-04-03T12:59:43;10.30;29.10
6654;DHT22;3363;50.942;7.034;2023-04-03T13:02:22;10.30;27.60
6654;DHT22;3363;50.942;7.034;2023-04-03T13:04:50;10.40;27.50
6654;DHT22;3363;50.942;7.034;2023-04-03T13:07:26;10.20;28.20
6654;DHT22;3363;50.942;7.034;2023-04-03T13:09:58;10.30;29.20
6654;DHT22;3363;50.942;7.034;2023-04-03T13:12:27;10.40;27.30
6654;DHT22;3363;50.942;7.034;2023-04-03T13:14:57;10.20;27.40
6654;DHT22;3363;50.942;7.034;2023-04-03T13:17:25;10.20;26.00
6654;DHT22;3363;50.942;7.034;2023-04-03T13:19:53;10.30;27.80
6654;DHT22;3363;50.942;7.034;2023-04-03T13:22:27;10.60;29.10
6654;DHT22;3363;50.942;7.034;2023-04-03T13:24:57;10.60;30.50
6654;DHT22;3363;50.942;7.034;2023-04-03T13:27:29;10.40;26.90
6654;DHT22;3363;50.942;7.034;2023-04-03T13:29:58;10.40;30.20
6654;DHT22;3363;50.942;7.034;2023-04-03T13:32:28;10.60;30.20
6654;DHT22;3363;50.942;7.034;2023-04-03T13:34:56;10.40;27.10
6654;DHT22;3363;50.942;7.034;2023-04-03T13:37:25;10.20;25.70
6654;DHT22;3363;50.942;7.034;2023-04-03T13:40:02;10.50;27.50
6654;DHT22;3363;50.942;7.034;2023-04-03T13:42:34;10.40;27.70
6654;DHT22;3363;50.942;7.034;2023-04-03T13:45:18;10.40;28.80
6654;DHT22;3363;50.942;7.034;2023-04-03T13:47:50;10.30;27.90
6654;DHT22;3363;50.942;7.034;2023-04-03T13:50:19;10.20;27.30
6654;DHT22;3363;50.942;7.034;2023-04-03T13:52:53;10.20;26.60
6654;DHT22;3363;50.942;7.034;2023-04-03T13:55:23;10.40;29.60
6654;DHT22;3363;50.942;7.034;2023-04-03T13:57:55;10.50;27.50
6654;DHT22;3363;50.942;7.034;2023-04-03T14:00:29;10.60;30.50
6654;DHT22;3363;50.942;7.034;2023-04-03T14:02:56;10.60;27.20
6654;DHT22;3363;50.942;7.034;2023-04-03T14:05:23;10.60;30.20
6654;DHT22;3363;50.942;7.034;2023-04-03T14:07:52;10.70;27.70
6654;DHT22;3363;50.942;7.034;2023-04-03T14:10:20;10.60;30.50
6654;DHT22;3363;50.942;7.034;2023-04-03T14:12:47;10.80;30.70
6654;DHT22;3363;50.942;7.034;2023-04-03T14:15:19;10.80;30.20
6654;DHT22;3363;50.942;7.034;2023-04-03T14:17:47;11.00;30.00
6654;DHT22;3363;50.942;7.034;2023-04-03T14:20:15;10.80;26.80
6654;DHT22;3363;50.942;7.034;2023-04-03T14:22:43;10.80;30.10
6654;DHT22;3363;50.942;7.034;2023-04-03T14:25:10;10.70;29.10
6654;DHT22;3363;50.942;7.034;2023-04-03T14:27:39;10.70;28.80
6654;DHT22;3363;50.942;7.034;2023-04-03T14:30:11;10.60;29.20
6654;DHT22;3363;50.942;7.034;2023-04-03T14:32:40;10.50;27.80
6654;DHT22;3363;50.942;7.034;2023-04-03T14:35:08;10.80;31.00
6654;DHT22;3363;50.942;7.034;2023-04-03T14:37:34;10.70;27.20
6654;DHT22;3363;50.942;7.034;2023-04-03T14:40:04;10.70;28.40
6654;DHT22;3363;50.942;7.034;2023-04-03T14:42:33;10.80;29.80
6654;DHT22;3363;50.942;7.034;2023-04-03T14:45:03;10.70;27.50
6654;DHT22;3363;50.942;7.034;2023-04-03T14:47:30;10.70;30.60
6654;DHT22;3363;50.942;7.034;2023-04-03T14:50:00;10.80;30.90
6654;DHT22;3363;50.942;7.034;2023-04-03T14:52:29;10.70;29.40
6654;DHT22;3363;50.942;7.034;2023-04-03T14:54:57;10.60;31.20
6654;DHT22;3363;50.942;7.034;2023-04-03T14:57:25;10.80;28.50
6654;DHT22;3363;50.942;7.034;2023-04-03T14:59:53;10.50;26.30
6654;DHT22;3363;50.942;7.034;2023-04-03T15:02:26;10.60;26.40
6654;DHT22;3363;50.942;7.034;2023-04-03T15:04:54;10.50;28.50
6654;DHT22;3363;50.942;7.034;2023-04-03T15:07:24;10.20;26.60
6654;DHT22;3363;50.942;7.034;2023-04-03T15:09:51;10.40;28.20
6654;DHT22;3363;50.942;7.034;2023-04-03T15:12:19;10.40;27.80
6654;DHT22;3363;50.942;7.034;2023-04-03T15:14:46;10.50;28.80
6654;DHT22;3363;50.942;7.034;2023-04-03T15:17:15;10.50;29.20
6654;DHT22;3363;50.942;7.034;2023-04-03T15:19:43;10.40;30.20
6654;DHT22;3363;50.942;7.034;2023-04-03T15:22:13;10.50;28.60
6654;DHT22;3363;50.942;7.034;2023-04-03T15:24:42;10.60;28.50
6654;DHT22;3363;50.942;7.034;2023-04-03T15:27:10;10.60;28.20
6654;DHT22;3363;50.942;7.034;2023-04-03T15:29:38;10.40;28.60
6654;DHT22;3363;50.942;7.034;2023-04-03T15:32:05;10.30;26.20
6654;DHT22;3363;50.942;7.034;2023-04-03T15:34:32;10.20;25.50
6654;DHT22;3363;50.942;7.034;2023-04-03T15:36:59;10.20;27.70
6654;DHT22;3363;50.942;7.034;2023-04-03T15:39:26;10.20;29.10
6654;DHT22;3363;50.942;7.034;2023-04-03T15:41:55;10.20;28.40
6654;DHT22;3363;50.942;7.034;2023-04-03T15:44:25;10.20;27.00
6654;DHT22;3363;50.942;7.034;2023-04-03T15:46:53;10.30;28.50
6654;DHT22;3363;50.942;7.034;2023-04-03T15:49:21;10.30;29.40
6654;DHT22;3363;50.942;7.034;2023-04-03T15:51:48;10.10;29.50
6654;DHT22;3363;50.942;7.034;2023-04-03T15:54:15;10.20;29.90
6654;DHT22;3363;50.942;7.034;2023-04-03T15:56:42;10.20;29.70
6654;DHT22;3363;50.942;7.034;2023-04-03T15:59:11;10.10;28.90
6654;DHT22;3363;50.942;7.034;2023-04-03T16:01:38;10.20;30.00
6654;DHT22;3363;50.942;7.034;2023-04-03T16:04:08;10.20;30.00
6654;DHT22;3363;50.942;7.034;2023-04-03T16:06:36;10.10;28.20
6654;DHT22;3363;50.942;7.034;2023-04-03T16:09:03;10.10;30.60
6654;DHT22;3363;50.942;7.034;2023-04-03T16:11:31;10.10;29.10
6654;DHT22;3363;50.942;7.034;2023-04-03T16:13:58;10.10;27.00
6654;DHT22;3363;50.942;7.034;2023-04-03T16:16:26;10.00;28.60
6654;DHT22;3363;50.942;7.034;2023-04-03T16:18:53;10.00;29.40
6654;DHT22;3363;50.942;7.034;2023-04-03T16:21:21;9.90;30.20
6654;DHT22;3363;50.942;7.034;2023-04-03T16:23:48;10.00;33.20
6654;DHT22;3363;50.942;7.034;2023-04-03T16:26:15;9.90;30.30
6654;DHT22;3363;50.942;7.034;2023-04-03T16:28:42;9.90;32.00
6654;DHT22;3363;50.942;7.034;2023-04-03T16:31:10;9.80;27.60
6654;DHT22;3363;50.942;7.034;2023-04-03T16:33:38;9.80;27.80
6654;DHT22;3363;50.942;7.034;2023-04-03T16:36:05;9.80;29.50
6654;DHT22;3363;50.942;7.034;2023-04-03T16:38:32;9.80;29.00